createdAt,value
2022-08-04T00:00:12.995Z,34.49
2022-08-04T00:02:51.780Z,34.99
2022-08-04T00:05:52.464Z,34.57
2022-08-04T00:08:50.533Z,34.25
2022-08-04T00:11:26.115Z,34.61
2022-08-04T00:14:03.864Z,35.01
2022-08-04T00:16:37.909Z,35.41
2022-08-04T00:19:18.647Z,35.53
2022-08-04T00:22:07.286Z,35.19
2022-08-04T00:24:35.503Z,35.17
2022-08-04T00:27:02.721Z,35.10
2022-08-04T00:29:31.046Z,35.06
2022-08-04T00:31:58.202Z,34.85
2022-08-04T00:34:31.410Z,35.15
2022-08-04T00:36:58.610Z,35.13
2022-08-04T00:39:26.966Z,35.25
2022-08-04T00:42:04.638Z,35.00
2022-08-04T00:44:40.115Z,34.76
2022-08-04T00:47:33.641Z,35.11
2022-08-04T00:50:10.679Z,35.02
2022-08-04T00:53:06.215Z,35.16
2022-08-04T00:56:27.810Z,35.21
2022-08-04T00:59:17.893Z,38.39
2022-08-04T01:02:06.331Z,37.58
2022-08-04T01:04:50.686Z,36.92
2022-08-04T01:07:45.197Z,36.30
2022-08-04T01:10:40.258Z,35.67
2022-08-04T01:13:43.655Z,36.39
2022-08-04T01:16:16.232Z,36.05
2022-08-04T01:19:06.076Z,36.25
2022-08-04T01:21:57.123Z,35.92
2022-08-04T01:24:45.833Z,36.02
2022-08-04T01:27:57.712Z,36.11
2022-08-04T01:30:27.622Z,35.85
2022-08-04T01:33:13.231Z,36.53
2022-08-04T01:35:53.785Z,36.21
2022-08-04T01:38:39.108Z,36.75
2022-08-04T01:41:08.044Z,36.20
2022-08-04T01:43:40.732Z,35.74
2022-08-04T01:46:12.769Z,35.77
2022-08-04T01:48:41.042Z,35.51
2022-08-04T01:51:10.244Z,35.32
2022-08-04T01:53:41.418Z,34.42
2022-08-04T01:56:11.168Z,35.04
2022-08-04T01:58:40.981Z,36.97
2022-08-04T02:01:12.482Z,35.94
2022-08-04T02:04:20.461Z,35.46
2022-08-04T02:06:49.737Z,36.00
2022-08-04T02:09:24.346Z,38.61
2022-08-04T02:12:16.211Z,37.36
2022-08-04T02:14:59.579Z,38.84
2022-08-04T02:17:40.953Z,41.17
2022-08-04T02:20:15.324Z,38.59
2022-08-04T02:22:58.366Z,37.55
2022-08-04T02:25:29.032Z,36.88
2022-08-04T02:28:32.761Z,36.61
2022-08-04T02:31:17.883Z,36.79
2022-08-04T02:34:37.282Z,36.54
2022-08-04T02:37:05.332Z,36.33
2022-08-04T02:39:48.278Z,35.61
2022-08-04T02:42:16.711Z,35.27
2022-08-04T02:44:48.903Z,35.57
2022-08-04T02:47:20.278Z,36.65
2022-08-04T02:49:50.500Z,37.36
2022-08-04T02:52:21.648Z,36.91
2022-08-04T02:54:53.916Z,36.59
2022-08-04T02:57:27.296Z,36.74
2022-08-04T03:00:09.079Z,36.06
2022-08-04T03:02:58.747Z,36.43
2022-08-04T03:05:54.150Z,36.04
2022-08-04T03:08:36.909Z,36.20
2022-08-04T03:11:44.352Z,35.81
2022-08-04T03:14:22.753Z,36.19
2022-08-04T03:17:07.809Z,35.86
2022-08-04T03:20:07.142Z,35.82
2022-08-04T03:23:13.959Z,36.24
2022-08-04T03:26:02.425Z,36.56
2022-08-04T03:29:02.878Z,37.11
2022-08-04T03:32:06.421Z,37.19
2022-08-04T03:35:22.973Z,37.81
2022-08-04T03:38:24.243Z,37.68
2022-08-04T03:41:18.234Z,37.66
2022-08-04T03:44:38.871Z,37.63
2022-08-04T03:47:55.233Z,37.92
2022-08-04T03:51:35.500Z,37.97
2022-08-04T03:54:21.065Z,38.41
2022-08-04T03:57:19.285Z,38.58
2022-08-04T04:00:18.013Z,38.89
2022-08-04T04:03:28.113Z,38.57
2022-08-04T04:06:32.905Z,38.41
2022-08-04T04:09:28.739Z,38.44
2022-08-04T04:12:21.371Z,38.52
2022-08-04T04:15:00.231Z,38.81
2022-08-04T04:17:46.990Z,38.79
2022-08-04T04:20:19.769Z,38.40
2022-08-04T04:23:47.699Z,38.68
2022-08-04T04:26:53.058Z,38.76
2022-08-04T04:29:56.797Z,39.28
2022-08-04T04:32:32.955Z,38.80
2022-08-04T04:35:29.544Z,37.87
2022-08-04T04:38:17.199Z,38.69
2022-08-04T04:40:57.177Z,38.04
2022-08-04T04:43:52.017Z,37.80
2022-08-04T04:46:46.999Z,37.17
2022-08-04T04:49:40.807Z,37.23
2022-08-04T04:52:43.815Z,37.40
2022-08-04T04:55:21.554Z,37.23
2022-08-04T04:57:55.360Z,36.41
2022-08-04T05:00:26.731Z,37.01
2022-08-04T05:03:29.876Z,36.51
2022-08-04T05:07:07.488Z,35.76
2022-08-04T05:09:59.739Z,34.75
2022-08-04T05:14:31.768Z,34.05
2022-08-04T05:15:30.568Z,33.21
2022-08-04T05:18:01.018Z,33.56
2022-08-04T05:20:45.933Z,32.96
2022-08-04T05:23:25.150Z,32.46
2022-08-04T05:26:00.300Z,31.89
2022-08-04T05:28:45.656Z,32.23
2022-08-04T05:31:21.305Z,31.82
2022-08-04T05:33:54.243Z,31.05
2022-08-04T05:36:40.408Z,30.71
2022-08-04T05:39:15.634Z,30.09
2022-08-04T05:41:45.885Z,29.59
2022-08-04T05:44:18.368Z,29.30
2022-08-04T05:46:54.157Z,28.79
2022-08-04T05:49:24.926Z,28.36
2022-08-04T05:51:55.132Z,27.97
2022-08-04T05:54:24.446Z,27.96
2022-08-04T05:56:52.058Z,27.69
2022-08-04T05:59:20.645Z,27.57
2022-08-04T06:01:56.580Z,27.38
2022-08-04T06:04:32.240Z,27.22
2022-08-04T06:06:59.160Z,26.71
2022-08-04T06:09:26.137Z,27.23
2022-08-04T06:12:00.544Z,26.48
2022-08-04T06:14:40.657Z,26.27
2022-08-04T06:18:32.659Z,26.76
2022-08-04T06:20:18.013Z,26.32
2022-08-04T06:22:49.398Z,26.30
2022-08-04T06:25:22.414Z,25.53
2022-08-04T06:27:51.164Z,25.18
2022-08-04T06:30:19.493Z,24.75
2022-08-04T06:32:48.954Z,24.91
2022-08-04T06:35:20.024Z,24.51
2022-08-04T06:37:48.209Z,24.14
2022-08-04T06:40:31.569Z,24.12
2022-08-04T06:43:07.902Z,24.76
2022-08-04T06:45:39.802Z,24.64
2022-08-04T06:48:07.357Z,24.77
2022-08-04T06:51:29.518Z,24.60
2022-08-04T06:53:27.247Z,24.68
2022-08-04T06:55:56.271Z,24.42
2022-08-04T06:58:24.852Z,23.96
2022-08-04T07:00:52.882Z,23.31
2022-08-04T07:03:21.743Z,23.12
2022-08-04T07:05:50.356Z,22.72
2022-08-04T07:08:17.699Z,21.88
2022-08-04T07:10:45.537Z,22.02
2022-08-04T07:13:13.455Z,22.59
2022-08-04T07:15:45.246Z,21.94
2022-08-04T07:18:12.205Z,22.71
2022-08-04T07:20:44.873Z,21.90
2022-08-04T07:23:17.458Z,22.31
2022-08-04T07:26:00.191Z,22.09
2022-08-04T07:28:37.435Z,20.93
2022-08-04T07:31:06.204Z,20.81
2022-08-04T07:33:33.386Z,20.71
2022-08-04T07:36:09.878Z,21.40
2022-08-04T07:38:48.571Z,21.47
2022-08-04T07:41:39.076Z,21.88
2022-08-04T07:44:08.217Z,22.07
2022-08-04T07:46:37.052Z,22.35
2022-08-04T07:49:05.706Z,21.39
2022-08-04T07:51:35.491Z,20.84
2022-08-04T07:54:05.657Z,20.71
2022-08-04T07:56:37.188Z,21.15
2022-08-04T07:59:04.787Z,21.69
2022-08-04T08:01:31.997Z,20.73
2022-08-04T08:04:00.718Z,20.35
2022-08-04T08:06:32.677Z,20.42
2022-08-04T08:09:13.628Z,20.07
2022-08-04T08:12:38.402Z,20.85
2022-08-04T08:14:31.614Z,20.33
2022-08-04T08:17:02.396Z,20.38
2022-08-04T08:19:31.240Z,20.25
2022-08-04T08:22:00.911Z,19.64
2022-08-04T08:24:37.152Z,20.65
2022-08-04T08:27:05.009Z,20.45
2022-08-04T08:29:35.084Z,21.64
2022-08-04T08:32:08.110Z,21.11
2022-08-04T08:34:36.187Z,19.79
2022-08-04T08:37:42.138Z,20.80
2022-08-04T08:40:41.558Z,21.30
2022-08-04T08:44:05.669Z,20.89
2022-08-04T08:46:50.472Z,20.25
2022-08-04T08:50:01.148Z,19.84
2022-08-04T08:53:01.219Z,19.70
2022-08-04T08:55:49.354Z,18.16
2022-08-04T08:59:07.060Z,18.01
2022-08-04T09:02:10.629Z,19.46
2022-08-04T09:05:12.491Z,18.45
2022-08-04T09:08:30.700Z,17.28
2022-08-04T09:11:06.639Z,18.88
2022-08-04T09:13:54.258Z,18.58
2022-08-04T09:16:33.238Z,18.16
2022-08-04T09:19:38.910Z,16.92
2022-08-04T09:22:38.412Z,17.13
2022-08-04T09:25:26.651Z,18.40
2022-08-04T09:28:09.360Z,18.65
2022-08-04T09:31:00.143Z,17.78
2022-08-04T09:33:52.905Z,17.84
2022-08-04T09:36:31.200Z,17.14
2022-08-04T09:39:22.804Z,15.29
2022-08-04T09:42:29.420Z,16.48
2022-08-04T09:45:06.096Z,15.84
2022-08-04T09:47:53.136Z,15.82
2022-08-04T09:50:49.927Z,16.30
2022-08-04T09:54:30.588Z,15.46
2022-08-04T09:57:31.378Z,15.85
2022-08-04T10:00:13.580Z,15.62
2022-08-04T10:02:55.101Z,15.96
2022-08-04T10:05:37.961Z,16.66
2022-08-04T10:08:48.305Z,16.17
2022-08-04T10:11:55.715Z,15.71
2022-08-04T10:14:44.496Z,15.06
2022-08-04T10:17:52.264Z,16.63
2022-08-04T10:20:59.027Z,16.67
2022-08-04T10:24:07.277Z,16.38
2022-08-04T10:27:00.174Z,18.57
2022-08-04T10:29:30.539Z,18.01
2022-08-04T10:32:12.094Z,17.98
2022-08-04T10:34:58.037Z,17.36
2022-08-04T10:38:01.064Z,17.31
2022-08-04T10:40:51.032Z,18.70
2022-08-04T10:43:36.063Z,17.91
2022-08-04T10:46:16.908Z,17.50
2022-08-04T10:49:08.402Z,17.45
2022-08-04T10:52:20.817Z,17.35
2022-08-04T10:55:06.957Z,15.54
2022-08-04T10:57:51.831Z,15.17
2022-08-04T11:00:27.383Z,16.29
2022-08-04T11:03:23.088Z,16.23
2022-08-04T11:05:55.566Z,17.36
2022-08-04T11:08:47.693Z,17.01
2022-08-04T11:12:00.446Z,15.70
2022-08-04T11:14:45.241Z,14.99
2022-08-04T11:17:21.298Z,14.71
2022-08-04T11:20:36.001Z,15.72
2022-08-04T11:23:10.610Z,16.22
2022-08-04T11:25:47.218Z,15.22
2022-08-04T11:28:39.606Z,13.21
2022-08-04T11:31:20.022Z,13.99
2022-08-04T11:34:09.994Z,12.82
2022-08-04T11:37:19.198Z,12.78
2022-08-04T11:40:20.905Z,11.75
2022-08-04T11:43:12.528Z,11.88
2022-08-04T11:45:53.205Z,13.01
2022-08-04T11:48:32.829Z,14.21
2022-08-04T11:51:02.450Z,13.61
2022-08-04T11:53:37.227Z,15.53
2022-08-04T11:56:11.441Z,14.67
2022-08-04T11:58:39.538Z,13.83
2022-08-04T12:01:21.701Z,13.92
2022-08-04T12:04:13.489Z,13.36
2022-08-04T12:07:21.882Z,12.87
2022-08-04T12:10:08.189Z,12.87
2022-08-04T12:12:52.230Z,14.02
2022-08-04T12:15:36.228Z,14.05
2022-08-04T12:18:22.897Z,14.12
2022-08-04T12:21:02.066Z,13.72
2022-08-04T12:23:38.402Z,12.92
2022-08-04T12:26:15.700Z,12.82
2022-08-04T12:29:09.109Z,12.71
2022-08-04T12:31:51.110Z,12.90
2022-08-04T12:34:34.200Z,12.00
2022-08-04T12:37:23.419Z,12.09
2022-08-04T12:40:28.457Z,12.22
2022-08-04T12:42:59.897Z,12.34
2022-08-04T12:45:28.781Z,13.28
2022-08-04T12:47:59.284Z,13.14
2022-08-04T12:50:30.030Z,13.45
2022-08-04T12:53:03.478Z,13.95
2022-08-04T12:55:35.377Z,12.38
2022-08-04T12:58:10.878Z,12.72
2022-08-04T13:00:41.667Z,12.00
2022-08-04T13:03:16.819Z,12.54
2022-08-04T13:05:46.410Z,12.61
2022-08-04T13:08:15.231Z,12.66
2022-08-04T13:10:46.715Z,12.97
2022-08-04T13:13:24.453Z,13.07
2022-08-04T13:16:02.142Z,12.64
2022-08-04T13:18:32.926Z,12.70
2022-08-04T13:21:23.171Z,11.63
2022-08-04T13:24:21.307Z,12.11
2022-08-04T13:27:03.918Z,12.01
2022-08-04T13:29:58.119Z,11.53
2022-08-04T13:32:28.975Z,11.42
2022-08-04T13:35:00.224Z,12.05
2022-08-04T13:37:36.619Z,13.14
2022-08-04T13:40:11.786Z,12.26
2022-08-04T13:42:40.352Z,11.53
2022-08-04T13:45:09.843Z,10.27
2022-08-04T13:47:40.330Z,9.96
2022-08-04T13:50:13.103Z,9.36
2022-08-04T13:52:42.776Z,8.80
2022-08-04T13:55:29.346Z,8.84
2022-08-04T13:58:10.057Z,8.84
2022-08-04T14:00:59.637Z,8.95
2022-08-04T14:03:53.496Z,8.19
2022-08-04T14:06:44.315Z,10.37
2022-08-04T14:09:35.178Z,11.01
2022-08-04T14:12:45.789Z,10.55
2022-08-04T14:14:59.089Z,8.89
2022-08-04T14:17:30.540Z,11.75
2022-08-04T14:19:59.127Z,12.19
2022-08-04T14:22:25.719Z,11.95
2022-08-04T14:25:15.430Z,11.80
2022-08-04T14:27:50.949Z,10.16
2022-08-04T14:30:33.344Z,11.55
2022-08-04T14:34:01.116Z,11.02
2022-08-04T14:35:59.223Z,11.78
2022-08-04T14:39:01.599Z,14.28
2022-08-04T14:41:43.698Z,13.71
2022-08-04T14:44:10.634Z,11.89
2022-08-04T14:46:51.683Z,11.31
2022-08-04T14:49:18.775Z,10.09
2022-08-04T14:52:05.887Z,9.51
2022-08-04T14:54:35.481Z,9.07
2022-08-04T14:57:07.946Z,8.84
2022-08-04T14:59:59.059Z,9.49
2022-08-04T15:02:29.936Z,11.23
2022-08-04T15:04:59.137Z,9.93
2022-08-04T15:07:46.062Z,8.63
2022-08-04T15:10:13.506Z,9.40
2022-08-04T15:12:40.728Z,8.92
2022-08-04T15:15:34.058Z,10.54
2022-08-04T15:17:55.358Z,10.17
2022-08-04T15:20:22.830Z,9.12
2022-08-04T15:22:49.813Z,9.11
2022-08-04T15:25:17.433Z,9.59
2022-08-04T15:27:48.977Z,9.90
2022-08-04T15:30:18.163Z,8.79
2022-08-04T15:32:53.022Z,8.85
2022-08-04T15:35:28.904Z,8.48
2022-08-04T15:38:15.063Z,9.57
2022-08-04T15:41:00.021Z,10.40
2022-08-04T15:44:17.708Z,10.93
2022-08-04T15:46:47.370Z,11.41
2022-08-04T15:49:25.763Z,10.39
2022-08-04T15:52:11.849Z,9.48
2022-08-04T15:54:42.154Z,9.63
2022-08-04T15:57:14.168Z,9.51
2022-08-04T16:00:03.222Z,9.96
2022-08-04T16:02:32.365Z,9.21
2022-08-04T16:05:17.713Z,8.31
2022-08-04T16:08:00.250Z,8.73
2022-08-04T16:10:32.815Z,8.08
2022-08-04T16:13:08.671Z,6.70
2022-08-04T16:15:45.165Z,7.15
2022-08-04T16:18:27.254Z,7.35
2022-08-04T16:21:05.814Z,6.91
2022-08-04T16:23:56.093Z,6.03
2022-08-04T16:26:45.393Z,6.28
2022-08-04T16:29:37.720Z,5.60
2022-08-04T16:32:18.380Z,5.31
2022-08-04T16:35:01.365Z,5.41
2022-08-04T16:37:42.811Z,5.84
2022-08-04T16:40:37.598Z,6.97
2022-08-04T16:43:13.218Z,7.44
2022-08-04T16:46:00.521Z,6.76
2022-08-04T16:48:30.347Z,6.08
2022-08-04T16:51:12.994Z,6.72
2022-08-04T16:53:57.828Z,5.87
2022-08-04T16:56:34.715Z,5.78
2022-08-04T16:59:13.591Z,7.93
2022-08-04T17:01:52.239Z,9.62
2022-08-04T17:04:32.762Z,9.19
2022-08-04T17:07:05.671Z,9.18
2022-08-04T17:09:33.372Z,9.01
2022-08-04T17:12:02.268Z,9.61
2022-08-04T17:14:31.943Z,9.59
2022-08-04T17:17:02.421Z,10.76
2022-08-04T17:19:29.511Z,10.64
2022-08-04T17:22:07.371Z,10.25
2022-08-04T17:24:41.051Z,10.18
2022-08-04T17:28:09.650Z,10.08
2022-08-04T17:29:55.831Z,10.71
2022-08-04T17:32:23.687Z,10.48
2022-08-04T17:34:55.398Z,11.04
2022-08-04T17:37:40.137Z,11.84
2022-08-04T17:40:18.549Z,12.35
2022-08-04T17:44:04.923Z,12.65
2022-08-04T17:46:45.680Z,13.68
2022-08-04T17:49:18.492Z,13.64
2022-08-04T17:52:06.373Z,13.95
2022-08-04T17:54:39.987Z,14.25
2022-08-04T17:57:21.337Z,14.13
2022-08-04T17:59:56.233Z,14.37
2022-08-04T18:02:34.367Z,14.63
2022-08-04T18:05:07.615Z,14.77
2022-08-04T18:08:35.638Z,14.73
2022-08-04T18:10:51.709Z,15.16
2022-08-04T18:13:26.273Z,15.73
2022-08-04T18:16:14.565Z,15.45
2022-08-04T18:19:14.606Z,15.24
2022-08-04T18:21:45.583Z,15.83
2022-08-04T18:24:15.250Z,17.11
2022-08-04T18:26:43.298Z,17.02
2022-08-04T18:29:30.915Z,16.52
2022-08-04T18:31:58.852Z,16.39
2022-08-04T18:34:27.231Z,16.80
2022-08-04T18:36:59.053Z,18.11
2022-08-04T18:40:09.714Z,17.78
2022-08-04T18:42:16.115Z,17.94
2022-08-04T18:44:52.282Z,18.65
2022-08-04T18:47:24.970Z,19.13
2022-08-04T18:51:00.926Z,19.44
2022-08-04T18:52:45.493Z,19.29
2022-08-04T18:55:55.355Z,19.10
2022-08-04T18:58:06.276Z,19.69
2022-08-04T19:00:35.068Z,19.74
2022-08-04T19:03:02.213Z,19.84
2022-08-04T19:05:38.194Z,19.31
2022-08-04T19:08:32.810Z,20.96
2022-08-04T19:10:59.942Z,20.17
2022-08-04T19:13:30.060Z,19.92
2022-08-04T19:16:01.808Z,24.08
2022-08-04T19:18:28.879Z,25.77
2022-08-04T19:20:55.929Z,26.20
2022-08-04T19:24:28.761Z,27.10
2022-08-04T19:26:23.819Z,26.44
2022-08-04T19:28:56.765Z,26.96
2022-08-04T19:31:28.430Z,27.72
2022-08-04T19:34:04.925Z,27.13
2022-08-04T19:36:34.579Z,27.80
2022-08-04T19:39:11.365Z,28.95
2022-08-04T19:42:05.716Z,30.36
2022-08-04T19:44:29.975Z,29.63
2022-08-04T19:47:00.883Z,29.56
2022-08-04T19:50:03.233Z,27.98
2022-08-04T19:52:34.016Z,29.36
2022-08-04T19:55:09.858Z,28.50
2022-08-04T19:57:46.168Z,27.54
2022-08-04T20:00:14.515Z,27.34
2022-08-04T20:02:42.097Z,26.92
2022-08-04T20:05:09.627Z,27.35
2022-08-04T20:07:37.194Z,27.63
2022-08-04T20:10:05.837Z,27.27
2022-08-04T20:12:33.845Z,26.40
2022-08-04T20:15:01.216Z,28.11
2022-08-04T20:18:07.126Z,29.62
2022-08-04T20:23:01.552Z,29.93
2022-08-04T20:25:36.426Z,30.38
2022-08-04T20:28:05.082Z,30.51
2022-08-04T20:30:33.266Z,30.16
2022-08-04T20:33:01.357Z,30.06
2022-08-04T20:35:32.472Z,30.32
2022-08-04T20:38:32.790Z,30.66
2022-08-04T20:41:01.759Z,30.64
2022-08-04T20:43:31.368Z,32.20
2022-08-04T20:45:59.674Z,30.44
2022-08-04T20:48:33.897Z,28.68
2022-08-04T20:51:00.778Z,28.04
2022-08-04T20:53:32.561Z,27.88
2022-08-04T20:56:30.235Z,30.04
2022-08-04T20:59:00.014Z,32.54
2022-08-04T21:01:30.452Z,32.99
2022-08-04T21:04:27.448Z,31.82
2022-08-04T21:06:57.418Z,31.46
2022-08-04T21:09:37.199Z,30.30
2022-08-04T21:12:06.126Z,34.20
2022-08-04T21:14:33.044Z,35.78
2022-08-04T21:17:00.513Z,34.93
2022-08-04T21:19:28.504Z,33.35
2022-08-04T21:21:55.385Z,31.75
2022-08-04T21:24:26.192Z,30.89
2022-08-04T21:26:57.342Z,32.76
2022-08-04T21:29:29.557Z,34.66
2022-08-04T21:32:07.743Z,35.98
2022-08-04T21:34:39.379Z,34.71
2022-08-04T21:37:10.067Z,32.80
2022-08-04T21:39:50.275Z,32.09
2022-08-04T21:42:27.768Z,32.19
2022-08-04T21:44:55.329Z,33.11
2022-08-04T21:47:23.782Z,32.74
2022-08-04T21:49:56.357Z,32.55
2022-08-04T21:52:24.059Z,33.55
2022-08-04T21:54:54.431Z,35.15
2022-08-04T21:57:24.790Z,34.02
2022-08-04T22:00:10.752Z,34.58
2022-08-04T22:02:45.003Z,36.63
2022-08-04T22:05:11.913Z,39.16
2022-08-04T22:07:50.996Z,37.36
2022-08-04T22:10:32.126Z,36.79
2022-08-04T22:16:03.738Z,35.82
2022-08-04T22:18:32.174Z,36.79
2022-08-04T22:23:53.015Z,36.70
2022-08-04T22:26:26.925Z,40.15
2022-08-04T22:28:56.170Z,43.91
2022-08-04T22:31:25.564Z,45.82
2022-08-04T22:33:53.937Z,45.62
2022-08-04T22:36:24.967Z,46.66
2022-08-04T22:39:04.112Z,45.42
2022-08-04T22:41:33.865Z,45.80
2022-08-04T22:44:15.928Z,46.39
2022-08-04T22:46:42.970Z,47.29
2022-08-04T22:49:09.719Z,47.71
2022-08-04T22:51:36.397Z,47.85
2022-08-04T22:54:12.356Z,48.51
2022-08-04T22:56:39.501Z,47.13
2022-08-04T22:59:10.882Z,41.67
2022-08-04T23:01:59.179Z,40.71
2022-08-04T23:04:26.062Z,38.98
2022-08-04T23:06:54.395Z,37.48
2022-08-04T23:09:22.275Z,37.50
2022-08-04T23:12:24.574Z,36.55
2022-08-04T23:14:54.832Z,37.37
2022-08-04T23:17:22.241Z,36.84
2022-08-04T23:19:58.291Z,37.92
2022-08-04T23:22:41.763Z,38.54
2022-08-04T23:25:16.446Z,39.26
2022-08-04T23:27:48.142Z,40.14
2022-08-04T23:30:19.890Z,41.77
2022-08-04T23:32:48.811Z,45.15
2022-08-04T23:35:16.505Z,48.77
2022-08-04T23:37:56.222Z,50.62
2022-08-04T23:40:32.930Z,52.78
2022-08-04T23:43:17.117Z,52.46
2022-08-04T23:46:04.978Z,52.26
2022-08-04T23:48:33.261Z,54.58
2022-08-04T23:51:14.007Z,54.56
2022-08-04T23:54:01.524Z,56.31
2022-08-04T23:56:31.794Z,57.50
2022-08-04T23:59:00.197Z,57.89
